createdAt,value
2018-11-29T00:03:22.733Z,48.22
2018-11-29T00:08:26.060Z,48.32
2018-11-29T00:13:29.378Z,48.28
2018-11-29T00:18:32.718Z,48.68
2018-11-29T00:23:36.033Z,48.51
2018-11-29T00:28:39.338Z,48.39
2018-11-29T00:34:00.048Z,48.53
2018-11-29T00:39:03.409Z,48.71
2018-11-29T00:44:06.715Z,49.10
2018-11-29T00:49:10.039Z,48.84
2018-11-29T00:54:13.358Z,48.98
2018-11-29T00:59:16.675Z,49.22
2018-11-29T01:04:19.986Z,49.22
2018-11-29T01:09:23.319Z,49.06
2018-11-29T01:14:26.663Z,49.16
2018-11-29T01:19:29.991Z,49.08
2018-11-29T01:24:33.328Z,49.50
2018-11-29T01:29:36.647Z,49.64
2018-11-29T01:34:40.001Z,49.64
2018-11-29T01:39:43.304Z,49.60
2018-11-29T01:44:46.620Z,49.90
2018-11-29T01:49:49.951Z,49.75
2018-11-29T01:54:53.279Z,49.87
2018-11-29T01:59:56.583Z,49.91
2018-11-29T02:04:59.899Z,49.87
2018-11-29T02:10:08.506Z,50.22
2018-11-29T02:15:11.816Z,50.24
2018-11-29T02:20:18.950Z,50.72
2018-11-29T02:25:22.264Z,51.02
2018-11-29T02:30:25.631Z,50.79
2018-11-29T02:35:28.948Z,50.95
2018-11-29T02:40:32.356Z,51.27
2018-11-29T02:45:35.839Z,51.01
2018-11-29T02:50:39.143Z,50.94
2018-11-29T02:55:42.556Z,51.31
2018-11-29T03:00:45.895Z,51.43
2018-11-29T03:05:49.199Z,51.43
2018-11-29T03:10:52.530Z,51.31
2018-11-29T03:15:55.883Z,51.21
2018-11-29T03:20:59.223Z,51.30
2018-11-29T03:26:02.665Z,51.38
2018-11-29T03:31:06.044Z,51.46
2018-11-29T03:36:09.491Z,51.48
2018-11-29T03:41:12.905Z,51.36
2018-11-29T03:46:16.243Z,51.35
2018-11-29T03:51:19.568Z,51.92
2018-11-29T03:56:22.905Z,51.81
2018-11-29T04:01:26.237Z,52.00
2018-11-29T04:06:29.715Z,52.23
2018-11-29T04:11:33.360Z,51.91
2018-11-29T04:16:36.684Z,52.21
2018-11-29T04:21:40.016Z,52.13
2018-11-29T04:26:43.346Z,52.24
2018-11-29T04:31:46.771Z,52.24
2018-11-29T04:36:50.230Z,52.46
2018-11-29T04:41:53.554Z,52.57
2018-11-29T04:46:56.925Z,52.27
2018-11-29T04:52:00.389Z,52.18
2018-11-29T04:57:03.927Z,52.24
2018-11-29T05:02:07.422Z,52.13
2018-11-29T05:07:10.906Z,51.78
2018-11-29T05:12:14.243Z,51.87
2018-11-29T05:17:17.576Z,51.32
2018-11-29T05:22:20.947Z,51.16
2018-11-29T05:27:24.360Z,51.49
2018-11-29T05:32:27.669Z,51.02
2018-11-29T05:37:31.049Z,51.14
2018-11-29T05:42:34.440Z,51.11
2018-11-29T05:47:37.753Z,51.12
2018-11-29T05:52:41.940Z,50.80
2018-11-29T05:57:44.731Z,50.90
2018-11-29T06:02:48.044Z,50.86
2018-11-29T06:07:51.363Z,51.21
2018-11-29T06:12:54.718Z,51.15
2018-11-29T06:17:58.053Z,50.77
2018-11-29T06:23:01.464Z,51.17
2018-11-29T06:28:04.784Z,50.73
2018-11-29T06:33:08.090Z,50.87
2018-11-29T06:38:11.523Z,50.87
2018-11-29T06:43:14.848Z,50.86
2018-11-29T06:48:18.166Z,50.74
2018-11-29T06:53:26.849Z,51.09
2018-11-29T06:58:30.166Z,50.71
2018-11-29T07:03:33.503Z,51.14
2018-11-29T07:08:36.819Z,50.73
2018-11-29T07:13:40.123Z,51.00
2018-11-29T07:18:43.440Z,50.97
2018-11-29T07:23:46.760Z,50.58
2018-11-29T07:28:50.069Z,51.32
2018-11-29T07:33:53.404Z,51.23
2018-11-29T07:38:56.728Z,51.19
2018-11-29T07:44:00.063Z,51.69
2018-11-29T07:49:03.421Z,51.42
2018-11-29T07:54:06.800Z,29.70
2018-11-29T07:59:10.148Z,30.26
2018-11-29T08:04:13.478Z,31.29
2018-11-29T08:09:16.843Z,30.94
2018-11-29T08:14:20.218Z,32.00
2018-11-29T08:19:23.553Z,31.76
2018-11-29T08:24:26.900Z,34.69
2018-11-29T08:29:34.997Z,37.20
2018-11-29T08:34:33.587Z,38.02
2018-11-29T08:39:36.918Z,38.43
2018-11-29T08:44:40.275Z,39.11
2018-11-29T08:49:43.623Z,39.58
2018-11-29T08:54:46.966Z,39.62
2018-11-29T08:59:50.278Z,40.05
2018-11-29T09:04:53.591Z,40.40
2018-11-29T09:09:56.941Z,40.86
2018-11-29T09:15:00.295Z,40.61
2018-11-29T09:20:03.746Z,40.81
2018-11-29T09:25:12.000Z,40.14
2018-11-29T09:30:16.226Z,40.58
2018-11-29T09:35:19.597Z,40.62
2018-11-29T09:40:22.940Z,40.95
2018-11-29T09:45:26.277Z,40.35
2018-11-29T09:50:29.625Z,41.01
2018-11-29T09:55:32.978Z,41.30
2018-11-29T10:00:36.315Z,41.13
2018-11-29T10:05:40.211Z,41.04
2018-11-29T10:10:43.574Z,41.02
2018-11-29T10:15:46.935Z,41.82
2018-11-29T10:20:50.285Z,41.74
2018-11-29T10:25:53.646Z,41.99
2018-11-29T10:31:00.373Z,42.39
2018-11-29T10:36:03.747Z,41.97
2018-11-29T10:41:07.126Z,42.78
2018-11-29T10:46:10.478Z,42.49
2018-11-29T10:51:13.826Z,42.59
2018-11-29T10:56:17.182Z,42.84
2018-11-29T11:01:25.883Z,42.54
2018-11-29T11:06:29.234Z,43.77
2018-11-29T11:11:32.594Z,43.94
2018-11-29T11:16:35.959Z,43.64
2018-11-29T11:21:39.299Z,43.94
2018-11-29T11:26:42.651Z,43.86
2018-11-29T11:31:46.018Z,43.66
2018-11-29T11:36:49.374Z,43.48
2018-11-29T11:41:52.816Z,43.71
2018-11-29T11:46:56.165Z,44.05
2018-11-29T11:51:59.511Z,43.72
2018-11-29T11:57:02.890Z,43.82
2018-11-29T12:02:06.278Z,43.84
2018-11-29T12:07:09.627Z,43.54
2018-11-29T12:12:12.979Z,43.92
2018-11-29T12:17:16.319Z,43.95
2018-11-29T12:22:19.663Z,43.74
2018-11-29T12:27:23.042Z,44.26
2018-11-29T12:32:26.396Z,43.71
2018-11-29T12:37:29.768Z,43.80
2018-11-29T12:42:33.253Z,44.00
2018-11-29T12:47:36.667Z,44.29
2018-11-29T12:52:40.059Z,44.10
2018-11-29T12:57:43.489Z,44.05
2018-11-29T13:02:53.010Z,44.32
2018-11-29T13:07:56.519Z,44.08
2018-11-29T13:12:59.856Z,43.45
2018-11-29T13:18:05.917Z,43.33
2018-11-29T13:23:09.254Z,43.36
2018-11-29T13:28:12.575Z,43.42
2018-11-29T13:33:15.919Z,43.60
2018-11-29T13:38:19.286Z,43.68
2018-11-29T13:43:22.618Z,43.73
2018-11-29T13:48:25.949Z,43.72
2018-11-29T13:53:29.295Z,44.14
2018-11-29T13:58:32.675Z,43.77
2018-11-29T14:03:36.010Z,43.88
2018-11-29T14:08:39.356Z,44.02
2018-11-29T14:13:42.696Z,44.36
2018-11-29T14:18:46.059Z,43.84
2018-11-29T14:23:49.396Z,43.67
2018-11-29T14:28:52.759Z,44.39
2018-11-29T14:33:56.127Z,44.36
2018-11-29T14:38:59.458Z,45.05
2018-11-29T14:44:02.836Z,45.35
2018-11-29T14:49:06.368Z,45.67
2018-11-29T14:54:09.723Z,45.40
2018-11-29T14:59:13.074Z,45.59
2018-11-29T15:04:16.451Z,45.15
2018-11-29T15:09:19.873Z,44.89
2018-11-29T15:14:23.260Z,45.32
2018-11-29T15:19:26.605Z,45.33
2018-11-29T15:24:29.935Z,45.57
2018-11-29T15:29:33.283Z,45.48
2018-11-29T15:34:36.890Z,45.80
2018-11-29T15:39:40.179Z,45.76
2018-11-29T15:44:43.522Z,45.25
2018-11-29T15:49:46.898Z,45.58
2018-11-29T15:54:50.217Z,45.00
2018-11-29T15:59:53.606Z,45.52
2018-11-29T16:04:56.963Z,45.43
2018-11-29T16:10:00.376Z,45.54
2018-11-29T16:15:05.684Z,45.91
2018-11-29T16:20:11.545Z,45.96
2018-11-29T16:25:14.943Z,45.78
2018-11-29T16:30:28.398Z,46.00
2018-11-29T16:35:31.756Z,45.54
2018-11-29T16:40:35.439Z,45.25
2018-11-29T16:45:38.799Z,45.41
2018-11-29T16:50:42.246Z,45.65
2018-11-29T16:55:45.600Z,45.41
2018-11-29T17:00:48.943Z,46.81
2018-11-29T17:05:52.274Z,46.07
2018-11-29T17:10:55.594Z,47.26
2018-11-29T17:15:58.934Z,47.57
2018-11-29T17:21:02.271Z,47.58
2018-11-29T17:26:05.694Z,47.34
2018-11-29T17:31:09.030Z,46.24
2018-11-29T17:36:12.388Z,46.39
2018-11-29T17:41:15.758Z,45.35
2018-11-29T17:46:19.126Z,46.67
2018-11-29T17:51:22.481Z,46.82
2018-11-29T17:56:25.886Z,46.70
2018-11-29T18:01:29.220Z,46.38
2018-11-29T18:06:32.548Z,44.70
2018-11-29T18:11:35.899Z,45.63
2018-11-29T18:16:39.268Z,45.53
2018-11-29T18:21:44.032Z,45.37
2018-11-29T18:26:47.112Z,45.30
2018-11-29T18:31:50.481Z,45.35
2018-11-29T18:36:53.932Z,45.45
2018-11-29T18:41:57.508Z,45.60
2018-11-29T18:47:01.036Z,45.74
2018-11-29T18:52:04.410Z,45.93
2018-11-29T18:57:07.861Z,46.24
2018-11-29T19:02:11.276Z,46.44
2018-11-29T19:07:14.661Z,46.33
2018-11-29T19:12:18.041Z,46.27
2018-11-29T19:17:25.055Z,46.36
2018-11-29T19:22:24.791Z,46.05
2018-11-29T19:27:28.183Z,45.63
2018-11-29T19:32:31.728Z,45.42
2018-11-29T19:37:35.115Z,45.33
2018-11-29T19:42:38.484Z,45.81
2018-11-29T19:52:47.507Z,46.33
2018-11-29T19:57:51.053Z,46.14
2018-11-29T20:02:55.583Z,46.19
2018-11-29T20:07:59.262Z,46.73
2018-11-29T20:13:05.535Z,46.73
2018-11-29T20:18:10.414Z,46.45
2018-11-29T20:23:13.900Z,46.40
2018-11-29T20:28:17.239Z,46.77
2018-11-29T20:33:20.573Z,46.72
2018-11-29T20:38:23.981Z,46.91
2018-11-29T20:43:28.948Z,46.78
2018-11-29T20:48:32.634Z,46.89
2018-11-29T20:53:38.720Z,47.28
2018-11-29T20:58:42.054Z,47.22
2018-11-29T21:03:45.374Z,47.42
2018-11-29T21:08:48.782Z,47.18
2018-11-29T21:13:52.119Z,47.47
2018-11-29T21:18:55.458Z,46.93
2018-11-29T21:23:59.689Z,47.41
2018-11-29T21:29:04.019Z,47.64
2018-11-29T21:34:07.775Z,47.42
2018-11-29T21:39:11.183Z,47.53
2018-11-29T21:44:14.548Z,47.64
2018-11-29T21:49:17.895Z,47.55
2018-11-29T21:54:21.292Z,47.08
2018-11-29T21:59:24.763Z,47.51
2018-11-29T22:04:28.385Z,47.46
2018-11-29T22:09:31.800Z,47.40
2018-11-29T22:14:35.135Z,47.42
2018-11-29T22:19:38.484Z,47.65
2018-11-29T22:24:41.796Z,47.75
2018-11-29T22:29:45.110Z,47.34
2018-11-29T22:34:48.462Z,47.37
2018-11-29T22:39:51.864Z,47.43
2018-11-29T22:44:55.198Z,47.48
2018-11-29T22:49:58.544Z,47.73
2018-11-29T22:55:01.889Z,47.45
2018-11-29T23:00:09.715Z,47.42
2018-11-29T23:05:13.044Z,47.60
2018-11-29T23:10:16.386Z,47.49
2018-11-29T23:15:19.714Z,47.99
2018-11-29T23:20:23.054Z,47.73
2018-11-29T23:25:26.367Z,48.12
2018-11-29T23:30:29.704Z,47.77
2018-11-29T23:35:33.063Z,47.46
2018-11-29T23:40:36.503Z,48.13
2018-11-29T23:50:49.693Z,48.38
2018-11-29T23:55:54.063Z,47.78
